Time;durP1;ratioP1;P1;durP2;ratioP2;P2;SDS_P1;SDS_P2;PMS_P1;PMS_P2;Temp;Humidity;BMP_temperature;BMP_pressure;BME280_temperature;BME280_humidity;BME280_pressure;Samples;Min_cycle;Max_cycle;Signal;HPM_P1;HPM_P2
2022/08/31 19:04:51;;;;;;;14.73;12.80;;;;;;;;;;5112350;27;20542;-92
2022/08/31 19:07:19;;;;;;;14.57;13.07;;;16.40;99.90;;;;;;5112548;28;20962;-91
2022/08/31 19:12:20;;;;;;;12.93;11.70;;;;;;;;;;5051403;27;20570;-92
2022/08/31 19:14:50;;;;;;;13.77;12.20;;;;;;;;;;5051720;28;20929;-93
2022/08/31 19:17:18;;;;;;;18.47;13.80;;;;;;;;;;5050975;28;20450;-93
2022/08/31 19:19:47;;;;;;;14.40;13.07;;;;;;;;;;5050852;28;20938;-93
2022/08/31 19:22:15;;;;;;;25.20;14.00;;;;;;;;;;5048923;28;20485;-93
2022/08/31 19:24:42;;;;;;;16.23;13.73;;;;;;;;;;5051201;28;20432;-92
2022/08/31 19:27:10;;;;;;;13.23;11.93;;;16.00;99.90;;;;;;5064056;28;20473;-92
2022/08/31 19:29:39;;;;;;;15.03;13.50;;;;;;;;;;5071276;28;20444;-94
2022/08/31 19:32:07;;;;;;;14.40;12.37;;;15.80;99.90;;;;;;5071755;28;20489;-92
2022/08/31 19:34:36;;;;;;;16.97;13.90;;;;;;;;;;5070140;28;20456;-92
2022/08/31 19:37:05;;;;;;;17.17;15.37;;;;;;;;;;5071544;28;20445;-93
2022/08/31 19:39:36;;;;;;;17.40;15.73;;;15.80;99.90;;;;;;5073328;28;20511;-94
2022/08/31 19:42:05;;;;;;;16.23;14.53;;;15.80;99.90;;;;;;5069408;28;20457;-91
2022/08/31 19:44:33;;;;;;;18.43;14.87;;;;;;;;;;5070764;28;20476;-93
2022/08/31 19:47:05;;;;;;;20.30;16.03;;;;;;;;;;5071616;28;20450;-91
2022/08/31 19:49:40;;;;;;;17.20;15.40;;;;;;;;;;5071007;28;20453;-93
2022/08/31 19:52:08;;;;;;;17.77;16.07;;;;;;;;;;5072162;28;20485;-93
2022/08/31 19:54:38;;;;;;;21.93;15.93;;;;;;;;;;5075658;28;20434;-93
2022/08/31 19:57:06;;;;;;;18.90;16.90;;;;;;;;;;5078397;28;20458;-92
2022/08/31 19:59:34;;;;;;;18.80;16.90;;;;;;;;;;5075908;28;20504;-93
2022/08/31 20:02:04;;;;;;;18.10;16.20;;;;;;;;;;5072103;28;20446;-93
2022/08/31 20:04:32;;;;;;;17.97;16.17;;;;;;;;;;5071611;28;20454;-92
2022/08/31 20:07:00;;;;;;;17.43;15.70;;;15.50;99.90;;;;;;5072056;28;20958;-91
2022/08/31 20:09:28;;;;;;;18.13;16.33;;;;;;;;;;5071143;28;20465;-93
2022/08/31 20:11:58;;;;;;;18.90;15.70;;;15.50;99.90;;;;;;5086951;28;20499;-92
2022/08/31 20:14:26;;;;;;;17.40;15.60;;;;;;;;;;5085081;28;20532;-91
2022/08/31 20:16:53;;;;;;;19.07;15.33;;;;;;;;;;5089620;28;20506;-89
2022/08/31 20:19:24;;;;;;;17.90;16.13;;;15.40;99.90;;;;;;5092406;28;20522;-92
2022/08/31 20:21:53;;;;;;;18.37;16.67;;;;;;;;;;5084308;28;20457;-92
2022/08/31 20:24:21;;;;;;;17.00;15.23;;;15.30;99.90;;;;;;5080371;28;20975;-94
2022/08/31 20:26:48;;;;;;;15.33;13.70;;;;;;;;;;5077593;28;20465;-93
2022/08/31 20:29:16;;;;;;;19.40;17.37;;;;;;;;;;5074035;28;20913;-95
2022/08/31 20:31:47;;;;;;;19.37;17.37;;;15.20;99.90;;;;;;5072766;28;20523;-92
2022/08/31 20:34:14;;;;;;;19.87;17.73;;;;;;;;;;5069339;28;20511;-93
2022/08/31 20:36:44;;;;;;;18.60;16.80;;;;;;;;;;5074124;28;20430;-92
2022/08/31 20:39:13;;;;;;;18.87;16.97;;;15.20;99.90;;;;;;5077087;28;20476;-93
2022/08/31 20:41:46;;;;;;;18.43;16.53;;;15.10;99.90;;;;;;5078786;28;20790;-93
2022/08/31 20:44:15;;;;;;;18.73;15.27;;;;;;;;;;5074938;28;20457;-92
2022/08/31 20:49:28;;;;;;;19.40;17.60;;;15.00;99.90;;;;;;5077394;28;20425;-94
2022/08/31 20:51:57;;;;;;;19.63;17.77;;;14.90;99.90;;;;;;5077826;28;20888;-93
2022/08/31 20:54:25;;;;;;;19.87;17.37;;;14.80;99.90;;;;;;5073031;28;20461;-94
2022/08/31 20:56:54;;;;;;;19.00;17.20;;;14.80;99.90;;;;;;5077609;28;20433;-94
2022/08/31 20:59:22;;;;;;;20.37;16.70;;;14.80;99.90;;;;;;5076704;28;20450;-93
2022/08/31 21:01:53;;;;;;;17.53;15.80;;;14.80;99.90;;;;;;5071970;28;20482;-94
2022/08/31 21:04:21;;;;;;;17.67;15.77;;;14.70;99.90;;;;;;5077211;28;20446;-93
2022/08/31 21:06:50;;;;;;;17.37;15.73;;;;;;;;;;5074455;28;20500;-93
2022/08/31 21:09:19;;;;;;;17.20;15.50;;;;;;;;;;5076038;28;20512;-92
2022/08/31 21:11:46;;;;;;;19.43;16.73;;;;;;;;;;5074349;28;20489;-93
2022/08/31 21:14:13;;;;;;;17.20;14.37;;;;;;;;;;5071609;28;20426;-92
2022/08/31 21:16:41;;;;;;;19.20;15.93;;;;;;;;;;5076670;28;20461;-93
2022/08/31 21:19:12;;;;;;;19.20;15.20;;;14.50;99.90;;;;;;5069994;28;20438;-93
2022/08/31 21:21:40;;;;;;;18.43;16.70;;;;;;;;;;5066093;28;20437;-93
2022/08/31 21:24:08;;;;;;;18.83;16.90;;;;;;;;;;5071908;28;20442;-93
2022/08/31 21:26:38;;;;;;;16.63;14.93;;;;;;;;;;5069536;28;20538;-94
2022/08/31 21:29:05;;;;;;;21.13;17.17;;;;;;;;;;5069274;28;20981;-93
2022/08/31 21:31:32;;;;;;;17.00;15.30;;;;;;;;;;5073206;28;21003;-93
2022/08/31 21:34:01;;;;;;;18.07;16.27;;;14.40;99.90;;;;;;5075454;28;20434;-92
2022/08/31 21:36:29;;;;;;;18.40;16.40;;;14.40;99.90;;;;;;5068005;28;20487;-94
2022/08/31 21:38:57;;;;;;;17.40;15.43;;;;;;;;;;5067246;28;20450;-94
2022/08/31 21:41:26;;;;;;;17.00;15.27;;;14.40;99.90;;;;;;5078893;28;20465;-92
2022/08/31 21:43:56;;;;;;;20.53;14.90;;;;;;;;;;5077709;28;20529;-94
2022/08/31 21:46:25;;;;;;;16.57;15.07;;;14.30;99.90;;;;;;5073261;28;20442;-93
2022/08/31 21:48:54;;;;;;;17.10;15.37;;;14.30;99.90;;;;;;5064661;28;20441;-93
2022/08/31 21:51:24;;;;;;;16.83;15.13;;;14.30;99.90;;;;;;5067906;28;20500;-92
2022/08/31 21:53:53;;;;;;;17.43;15.77;;;14.30;99.90;;;;;;5073761;28;20454;-92
2022/08/31 21:56:21;;;;;;;16.60;14.80;;;;;;;;;;5073758;28;20536;-94
2022/08/31 21:58:48;;;;;;;16.67;15.07;;;;;;;;;;5071701;28;20430;-94
2022/08/31 22:01:18;;;;;;;17.60;15.80;;;;;;;;;;5072495;28;20869;-92
2022/08/31 22:03:45;;;;;;;17.03;15.43;;;;;;;;;;5075169;28;20495;-94
2022/08/31 22:06:14;;;;;;;16.70;15.00;;;14.10;99.90;;;;;;5068644;28;20457;-92
2022/08/31 22:08:42;;;;;;;17.60;14.83;;;;;;;;;;5071083;28;20438;-95
2022/08/31 22:11:13;;;;;;;16.37;14.63;;;;;;;;;;5075110;28;20528;-94
2022/08/31 22:13:42;;;;;;;17.10;15.50;;;;;;;;;;5074137;28;20462;-94
2022/08/31 22:16:12;;;;;;;18.90;16.90;;;;;;;;;;5076040;28;20472;-93
2022/08/31 22:18:44;;;;;;;18.77;15.67;;;14.00;99.90;;;;;;5076827;28;20454;-93
2022/08/31 22:21:14;;;;;;;17.60;15.30;;;14.00;99.90;;;;;;5075770;28;20458;-93
2022/08/31 22:23:42;;;;;;;17.63;15.73;;;;;;;;;;5072000;28;20469;-93
2022/08/31 22:26:10;;;;;;;17.50;15.67;;;;;;;;;;5075872;28;20438;-93
2022/08/31 22:28:41;;;;;;;16.50;15.00;;;;;;;;;;5072267;28;20488;-93
2022/08/31 22:31:09;;;;;;;17.50;15.50;;;;;;;;;;5073303;28;20446;-95
2022/08/31 22:33:36;;;;;;;18.03;16.13;;;;;;;;;;5071363;28;20458;-94
2022/08/31 22:36:06;;;;;;;18.00;15.50;;;13.80;99.90;;;;;;5073500;28;20487;-93
2022/08/31 22:38:34;;;;;;;16.60;14.90;;;;;;;;;;5072949;28;20454;-94
2022/08/31 22:41:08;;;;;;;16.77;15.17;;;;;;;;;;5069426;28;20472;-94
2022/08/31 22:43:35;;;;;;;16.13;14.50;;;;;;;;;;5074830;28;20822;-94
2022/08/31 22:46:02;;;;;;;15.47;14.07;;;;;;;;;;5070627;28;20431;-94
2022/08/31 22:48:30;;;;;;;17.00;15.33;;;;;;;;;;5073039;28;20905;-92
2022/08/31 22:50:57;;;;;;;18.23;14.00;;;;;;;;;;5071376;28;20446;-93
2022/08/31 22:53:26;;;;;;;17.63;15.50;;;;;;;;;;5070464;28;20422;-93
2022/08/31 22:55:53;;;;;;;16.00;13.70;;;;;;;;;;5075261;28;20539;-94
2022/08/31 22:58:21;;;;;;;17.30;15.60;;;;;;;;;;5071195;28;20869;-91
2022/08/31 23:00:48;;;;;;;15.83;14.30;;;;;;;;;;5071040;28;20436;-95
2022/08/31 23:03:15;;;;;;;18.83;15.70;;;;;;;;;;5072208;28;20492;-94
2022/08/31 23:05:42;;;;;;;16.13;14.43;;;;;;;;;;5069990;28;20456;-95
2022/08/31 23:08:10;;;;;;;17.43;15.47;;;;;;;;;;5068749;28;20446;-93
2022/08/31 23:10:45;;;;;;;18.17;14.73;;;;;;;;;;5060759;28;20470;-95
2022/08/31 23:13:50;;;;;;;17.67;15.60;;;;;;;;;;5054608;28;20929;-93
2022/08/31 23:16:05;;;;;;;17.53;15.50;;;;;;;;;;5054440;28;20438;-92
2022/08/31 23:18:34;;;;;;;15.47;13.83;;;;;;;;;;5051577;28;20816;-93
2022/08/31 23:21:07;;;;;;;16.57;14.93;;;;;;;;;;5055180;28;20462;-93
2022/08/31 23:23:35;;;;;;;17.97;15.30;;;;;;;;;;5051422;28;20454;-95
2022/08/31 23:26:08;;;;;;;17.37;15.77;;;13.40;99.90;;;;;;5051478;28;20450;-93
2022/08/31 23:28:35;;;;;;;15.60;14.13;;;;;;;;;;5048757;28;20509;-93
2022/08/31 23:31:03;;;;;;;18.97;16.97;;;;;;;;;;5052053;28;20815;-93
2022/08/31 23:33:30;;;;;;;18.80;15.00;;;;;;;;;;5051484;28;20985;-93
2022/08/31 23:35:58;;;;;;;17.17;15.37;;;;;;;;;;5049338;28;20450;-96
2022/08/31 23:38:26;;;;;;;19.93;14.70;;;;;;;;;;5052576;28;20497;-95
2022/08/31 23:40:54;;;;;;;16.00;14.30;;;;;;;;;;5055178;28;20458;-93
2022/08/31 23:43:25;;;;;;;20.00;16.67;;;;;;;;;;5050969;28;21011;-93
2022/08/31 23:45:54;;;;;;;20.70;16.70;;;;;;;;;;5054255;28;20458;-93
2022/08/31 23:48:24;;;;;;;19.30;16.40;;;;;;;;;;5054751;28;20922;-94
2022/08/31 23:50:51;;;;;;;20.03;16.53;;;;;;;;;;5054786;28;20454;-95
2022/08/31 23:53:18;;;;;;;18.00;16.00;;;;;;;;;;5048238;28;20871;-93
2022/08/31 23:55:46;;;;;;;18.07;15.93;;;;;;;;;;5051161;28;20458;-93
2022/08/31 23:58:14;;;;;;;19.30;17.40;;;;;;;;;;5057285;28;20442;-93
